Time;durP1;ratioP1;P1;durP2;ratioP2;P2;SDS_P1;SDS_P2;PMS_P1;PMS_P2;Temp;Humidity;BMP_temperature;BMP_pressure;BME280_temperature;BME280_humidity;BME280_pressure;Samples;Min_cycle;Max_cycle;Signal;HPM_P1;HPM_P2
2023/02/15 00:02:19;;;;;;;15.10;10.70;;;;;;;10.38;54.71;101821.70;143608;1273;97988;-79
2023/02/15 00:05:41;;;;;;;14.00;11.40;;;;;;;10.39;54.71;101828.51;143651;1276;98058;-80
2023/02/15 00:09:06;;;;;;;13.70;10.80;;;;;;;10.39;54.73;101824.89;143452;1273;108453;-80
2023/02/15 00:12:28;;;;;;;11.80;9.70;;;;;;;10.39;54.58;101825.75;143404;1275;107634;-80
2023/02/15 00:15:50;;;;;;;12.30;10.70;;;;;;;10.39;54.48;101821.95;143513;1276;98062;-78
2023/02/15 00:19:14;;;;;;;14.30;10.40;;;;;;;10.40;54.49;101819.36;143490;1273;99246;-79
2023/02/15 00:22:36;;;;;;;14.40;10.80;;;;;;;10.40;54.59;101815.71;143468;1273;97966;-80
2023/02/15 00:26:09;;;;;;;11.00;9.90;;;;;;;10.40;54.59;101816.42;143659;1273;98095;-80
2023/02/15 00:29:32;;;;;;;13.50;10.40;;;;;;;10.40;54.44;101812.27;143122;1274;97980;-80
2023/02/15 00:32:54;;;;;;;14.60;10.40;;;;;;;10.41;54.47;101814.73;143533;1276;97964;-79
2023/02/15 00:36:15;;;;;;;12.50;11.00;;;;;;;10.41;54.37;101808.98;143532;1273;97979;-78
2023/02/15 00:39:37;;;;;;;12.70;10.80;;;;;;;10.42;54.32;101806.56;143123;1280;97934;-78
2023/02/15 00:43:00;;;;;;;15.10;11.80;;;;;;;10.42;54.29;101804.14;143452;1273;99263;-81
2023/02/15 00:46:22;;;;;;;12.40;10.50;;;;;;;10.42;54.45;101797.54;143515;1287;98382;-78
2023/02/15 00:49:44;;;;;;;15.10;10.90;;;;;;;10.42;54.62;101797.55;143305;1272;112102;-80
2023/02/15 00:53:06;;;;;;;14.50;10.40;;;;;;;10.43;54.40;101798.08;143528;1275;98042;-78
2023/02/15 00:56:28;;;;;;;14.60;10.50;;;;;;;10.43;54.34;101796.88;143572;1275;98136;-81
2023/02/15 00:59:50;;;;;;;12.90;11.70;;;;;;;10.43;54.30;101792.19;143318;1275;103386;-78
2023/02/15 01:03:13;;;;;;;15.40;11.50;;;;;;;10.43;54.17;101788.72;143522;1274;98274;-81
2023/02/15 01:06:36;;;;;;;16.10;11.40;;;;;;;10.44;54.34;101789.45;143710;1276;97987;-79
2023/02/15 01:09:58;;;;;;;15.80;10.30;;;;;;;10.43;54.16;101787.85;143632;1276;98067;-78
2023/02/15 01:13:20;;;;;;;14.90;11.50;;;;;;;10.43;54.29;101788.39;143502;1274;108550;-78
2023/02/15 01:16:42;;;;;;;15.70;10.70;;;;;;;10.43;54.36;101780.20;143484;1276;97942;-78
2023/02/15 01:20:05;;;;;;;12.40;10.70;;;;;;;10.42;54.24;101776.17;143497;1274;98575;-78
2023/02/15 01:23:27;;;;;;;16.00;11.50;;;;;;;10.43;54.36;101776.90;143500;1276;97998;-78
2023/02/15 01:26:49;;;;;;;13.50;11.40;;;;;;;10.42;54.15;101773.04;143725;1274;98842;-81
2023/02/15 01:30:12;;;;;;;14.70;11.30;;;;;;;10.43;54.20;101774.62;143633;1275;97984;-81
2023/02/15 01:33:35;;;;;;;15.10;11.10;;;;;;;10.42;54.30;101772.17;143431;1276;98090;-78
2023/02/15 01:36:57;;;;;;;15.40;12.30;;;;;;;10.43;54.29;101771.51;143636;1274;99239;-80
2023/02/15 01:40:19;;;;;;;15.00;12.10;;;;;;;10.43;54.15;101767.67;143218;1274;97951;-80
2023/02/15 01:43:44;;;;;;;15.20;11.50;;;;;;;10.43;54.28;101769.95;143598;1277;97972;-78
2023/02/15 01:47:07;;;;;;;17.90;12.30;;;;;;;10.42;54.33;101768.52;143424;1276;111158;-84
2023/02/15 01:50:33;;;;;;;14.80;11.90;;;;;;;10.42;54.38;101767.48;143200;1279;99282;-80
2023/02/15 01:54:31;;;;;;;13.10;10.80;;;;;;;10.43;54.19;101766.09;143302;1273;111309;-84
2023/02/15 01:57:53;;;;;;;15.20;12.80;;;;;;;10.43;54.08;101768.57;142158;1285;111293;-80
2023/02/15 02:01:15;;;;;;;16.00;12.30;;;;;;;10.42;53.97;101765.23;142168;1285;99238;-81
2023/02/15 02:04:41;;;;;;;21.30;12.10;;;;;;;10.43;54.07;101760.71;142364;1279;98106;-78
2023/02/15 02:08:04;;;;;;;17.80;12.10;;;;;;;10.43;54.03;101760.36;142342;1283;104617;-78
2023/02/15 02:11:26;;;;;;;12.70;11.20;;;;;;;10.42;53.95;101755.85;142004;1285;98269;-78
2023/02/15 02:14:48;;;;;;;13.80;11.30;;;;;;;10.43;54.06;101755.37;142232;1283;98830;-79
2023/02/15 02:18:56;;;;;;;15.40;12.10;;;;;;;10.43;54.05;101753.64;142146;1282;109896;-81
2023/02/15 02:22:49;;;;;;;15.20;11.90;;;;;;;10.44;54.01;101749.99;142488;1279;107265;-77
2023/02/15 02:26:25;;;;;;;16.90;12.80;;;;;;;10.43;53.97;101746.50;142139;1283;107637;-78
2023/02/15 02:30:11;;;;;;;14.30;12.50;;;;;;;10.43;53.97;101745.98;142311;1282;106251;-78
2023/02/15 02:33:56;;;;;;;14.40;11.70;;;;;;;10.43;54.02;101741.64;142544;1284;107730;-79
2023/02/15 02:37:42;;;;;;;14.70;12.00;;;;;;;10.43;53.98;101735.00;142174;1285;107328;-79
2023/02/15 02:41:16;;;;;;;14.50;12.70;;;;;;;10.43;54.11;101734.16;142138;1285;107467;-78
2023/02/15 02:44:54;;;;;;;18.70;13.20;;;;;;;10.43;53.94;101730.81;142270;1283;107404;-79
2023/02/15 02:48:21;;;;;;;15.80;12.00;;;;;;;10.43;53.89;101729.79;142167;1285;108463;-79
2023/02/15 02:51:46;;;;;;;15.60;12.60;;;;;;;10.43;53.89;101728.92;142327;1281;107748;-78
2023/02/15 02:55:21;;;;;;;14.20;12.10;;;;;;;10.43;53.93;101731.70;141909;1286;107658;-79
2023/02/15 02:58:51;;;;;;;16.90;13.30;;;;;;;10.44;53.93;101733.14;142101;1282;107986;-78
2023/02/15 03:02:18;;;;;;;17.40;11.90;;;;;;;10.43;53.96;101728.41;142226;1279;110200;-80
2023/02/15 03:05:44;;;;;;;15.70;12.60;;;;;;;10.44;53.90;101729.33;142208;1279;106718;-79
2023/02/15 03:09:41;;;;;;;14.10;12.60;;;;;;;10.43;53.97;101725.44;142102;1287;107608;-79
2023/02/15 03:13:03;;;;;;;17.90;12.20;;;;;;;10.42;53.75;101730.27;142265;1284;108085;-78
2023/02/15 03:16:26;;;;;;;16.20;13.00;;;;;;;10.42;53.93;101724.88;143191;1273;98291;-80
2023/02/15 03:19:50;;;;;;;15.30;12.40;;;;;;;10.42;54.12;101722.78;143515;1273;98017;-80
2023/02/15 03:23:22;;;;;;;15.70;13.10;;;;;;;10.42;54.11;101725.23;143578;1274;98038;-79
2023/02/15 03:26:47;;;;;;;13.00;11.60;;;;;;;10.42;53.97;101721.21;143489;1273;98019;-80
2023/02/15 03:30:11;;;;;;;16.20;13.00;;;;;;;10.40;53.86;101724.14;143576;1272;99294;-78
2023/02/15 03:33:35;;;;;;;13.90;12.40;;;;;;;10.42;53.93;101724.00;143224;1277;98026;-80
2023/02/15 03:37:26;;;;;;;18.40;14.00;;;;;;;10.41;53.94;101728.67;143676;1276;98033;-79
2023/02/15 03:44:31;;;;;;;13.80;12.20;;;;;;;10.41;53.93;101729.71;143266;1277;98428;-79
2023/02/15 03:47:54;;;;;;;13.70;12.00;;;;;;;10.40;53.85;101731.08;143598;1273;98036;-78
2023/02/15 03:51:33;;;;;;;14.50;11.90;;;;;;;10.40;53.80;101726.90;143187;1273;97962;-78
2023/02/15 03:54:55;;;;;;;15.90;11.50;;;;;;;10.40;53.93;101721.34;143584;1276;97976;-78
2023/02/15 04:02:12;;;;;;;17.00;11.90;;;;;;;10.39;53.86;101714.20;143405;1276;98061;-78
2023/02/15 04:05:35;;;;;;;12.50;11.20;;;;;;;10.39;53.94;101705.16;143460;1273;98032;-81
2023/02/15 04:12:37;;;;;;;14.40;12.50;;;;;;;10.39;53.96;101709.14;143601;1275;99543;-79
2023/02/15 04:16:05;;;;;;;16.20;12.40;;;;;;;10.39;54.00;101705.30;143670;1276;98037;-78
2023/02/15 04:26:52;;;;;;;14.20;11.90;;;;;;;10.39;54.02;101707.73;143609;1274;98023;-78
2023/02/15 04:30:16;;;;;;;11.70;10.50;;;;;;;10.39;54.04;101709.45;143607;1273;99268;-78
2023/02/15 04:33:39;;;;;;;15.10;10.40;;;;;;;10.38;53.77;101706.99;143604;1272;97975;-79
2023/02/15 04:37:01;;;;;;;14.40;10.80;;;;;;;10.38;53.81;101705.94;143493;1276;97975;-80
2023/02/15 04:40:23;;;;;;;12.00;10.70;;;;;;;10.38;53.74;101705.23;143667;1276;98032;-79
2023/02/15 04:43:44;;;;;;;11.00;9.80;;;;;;;10.37;53.82;101699.66;143574;1274;98094;-78
2023/02/15 04:47:07;;;;;;;12.30;11.00;;;;;;;10.37;54.00;101703.64;143517;1273;98036;-83
2023/02/15 04:50:28;;;;;;;11.50;10.30;;;;;;;10.36;53.81;101709.88;143197;1295;98071;-77
2023/02/15 04:53:52;;;;;;;11.10;9.80;;;;;;;10.36;53.75;101710.39;143544;1274;112098;-77
2023/02/15 04:57:14;;;;;;;14.80;9.90;;;;;;;10.36;53.90;101706.05;143622;1274;112078;-77
2023/02/15 05:00:36;;;;;;;11.20;9.80;;;;;;;10.36;53.73;101699.77;143698;1274;99251;-78
2023/02/15 05:03:58;;;;;;;12.30;10.60;;;;;;;10.35;53.70;101703.38;143104;1278;98177;-77
2023/02/15 05:07:20;;;;;;;11.90;9.50;;;;;;;10.35;53.83;101707.89;143520;1276;103143;-77
2023/02/15 05:10:42;;;;;;;12.60;10.20;;;;;;;10.34;53.83;101714.48;143551;1274;98039;-76
2023/02/15 05:14:05;;;;;;;9.30;8.40;;;;;;;10.34;53.77;101714.44;143596;1272;97956;-78
2023/02/15 05:17:27;;;;;;;10.90;9.40;;;;;;;10.32;53.81;101718.37;143668;1273;107435;-76
2023/02/15 05:20:49;;;;;;;11.80;10.10;;;;;;;10.33;53.80;101726.38;143749;1276;98836;-77
2023/02/15 05:31:32;;;;;;;10.60;9.30;;;;;;;10.30;53.62;101732.16;143600;1276;98035;-78
2023/02/15 05:34:54;;;;;;;14.10;10.20;;;;;;;10.29;53.76;101732.65;143601;1273;98053;-77
2023/02/15 05:38:16;;;;;;;10.50;9.50;;;;;;;10.28;53.75;101728.77;143514;1273;98014;-78
2023/02/15 05:41:37;;;;;;;10.60;9.20;;;;;;;10.28;53.82;101729.64;143675;1273;97965;-78
2023/02/15 05:44:59;;;;;;;10.10;8.40;;;;;;;10.27;53.68;101730.27;143520;1275;98832;-77
2023/02/15 05:48:25;;;;;;;10.70;9.70;;;;;;;10.25;53.77;101725.11;143550;1271;98488;-79
2023/02/15 05:51:48;;;;;;;9.90;8.90;;;;;;;10.24;53.79;101723.16;143609;1276;112202;-78
2023/02/15 05:55:10;;;;;;;13.20;9.70;;;;;;;10.23;53.82;101726.10;143563;1273;99147;-78
2023/02/15 05:58:34;;;;;;;9.70;8.80;;;;;;;10.22;53.79;101725.85;143005;1274;98017;-78
2023/02/15 06:01:56;;;;;;;11.30;8.40;;;;;;;10.22;53.55;101729.14;143457;1276;102226;-78
2023/02/15 06:05:18;;;;;;;11.30;8.60;;;;;;;10.21;53.79;101729.63;143554;1276;99373;-78
2023/02/15 06:08:40;;;;;;;10.00;9.10;;;;;;;10.21;53.77;101728.23;143579;1277;98067;-79
2023/02/15 06:12:02;;;;;;;10.70;9.30;;;;;;;10.21;53.69;101729.30;143698;1273;107602;-79
2023/02/15 06:15:24;;;;;;;9.40;8.10;;;;;;;10.21;53.67;101728.75;143494;1273;97950;-78
2023/02/15 06:18:45;;;;;;;10.60;8.90;;;;;;;10.20;53.54;101729.43;143541;1273;97941;-78
2023/02/15 06:22:07;;;;;;;11.00;9.00;;;;;;;10.21;53.61;101728.77;143657;1276;97956;-78
2023/02/15 06:25:29;;;;;;;10.20;8.70;;;;;;;10.21;53.62;101726.48;143603;1272;99249;-77
2023/02/15 06:28:51;;;;;;;10.30;9.30;;;;;;;10.21;53.73;101730.66;143539;1277;99248;-78
2023/02/15 06:32:12;;;;;;;9.60;8.70;;;;;;;10.21;53.69;101729.98;143670;1278;98015;-77
2023/02/15 06:35:34;;;;;;;9.70;8.60;;;;;;;10.21;53.68;101730.15;143438;1276;99206;-80
2023/02/15 06:38:56;;;;;;;9.60;8.60;;;;;;;10.21;53.73;101731.55;143535;1275;97977;-78
2023/02/15 06:42:18;;;;;;;8.40;7.50;;;;;;;10.22;53.48;101735.05;143645;1276;111827;-78
2023/02/15 06:45:41;;;;;;;9.90;8.90;;;;;;;10.23;53.66;101736.13;143491;1276;97965;-79
2023/02/15 06:49:03;;;;;;;10.20;9.00;;;;;;;10.23;53.76;101737.00;143563;1274;98034;-80
2023/02/15 06:52:24;;;;;;;12.10;9.10;;;;;;;10.23;53.53;101736.50;143586;1275;103208;-77
2023/02/15 06:55:46;;;;;;;10.40;8.70;;;;;;;10.23;53.76;101732.70;143323;1276;99344;-83
2023/02/15 06:59:08;;;;;;;10.60;9.00;;;;;;;10.24;53.68;101734.63;143645;1287;98092;-84
2023/02/15 07:02:31;;;;;;;10.80;8.50;;;;;;;10.24;53.72;101732.73;143592;1274;106957;-83
2023/02/15 07:05:57;;;;;;;11.30;9.30;;;;;;;10.24;53.52;101730.99;143500;1274;99280;-80
2023/02/15 07:09:22;;;;;;;10.00;9.10;;;;;;;10.25;53.51;101735.54;143614;1276;107531;-78
2023/02/15 07:12:45;;;;;;;10.10;9.00;;;;;;;10.25;53.67;101732.63;143155;1278;106569;-78
2023/02/15 07:16:07;;;;;;;10.20;8.90;;;;;;;10.25;53.55;101732.27;143658;1275;97947;-77
2023/02/15 07:19:29;;;;;;;9.80;8.90;;;;;;;10.26;53.60;101730.05;143574;1273;98858;-79
2023/02/15 07:22:51;;;;;;;13.00;10.40;;;;;;;10.25;53.45;101726.54;143610;1276;98536;-78
2023/02/15 07:26:13;;;;;;;10.20;8.80;;;;;;;10.26;53.26;101727.48;143553;1274;98062;-82
2023/02/15 07:29:35;;;;;;;11.50;8.70;;;;;;;10.27;53.61;101727.85;143606;1288;98128;-80
2023/02/15 07:36:40;;;;;;;12.50;9.70;;;;;;;10.28;53.54;101718.88;143611;1273;98052;-81
2023/02/15 07:40:06;;;;;;;11.60;8.80;;;;;;;10.28;53.42;101712.97;143295;1273;99231;-78
2023/02/15 07:43:29;;;;;;;9.40;8.50;;;;;;;10.29;53.38;101717.17;143634;1276;98019;-78
2023/02/15 07:46:51;;;;;;;10.10;9.10;;;;;;;10.30;53.42;101719.64;142933;1277;97992;-78
2023/02/15 07:50:13;;;;;;;11.40;9.60;;;;;;;10.31;53.31;101716.56;143544;1273;99265;-79
2023/02/15 07:53:36;;;;;;;10.70;9.50;;;;;;;10.32;53.45;101720.06;143585;1274;112142;-85
2023/02/15 07:56:58;;;;;;;10.50;9.50;;;;;;;10.31;53.47;101710.68;143367;1274;98724;-85
2023/02/15 08:00:24;;;;;;;10.90;9.80;;;;;;;10.32;53.31;101711.05;143200;1276;98026;-84
2023/02/15 08:03:47;;;;;;;11.40;10.20;;;;;;;10.32;53.47;101707.42;143295;1277;102291;-82
2023/02/15 08:07:09;;;;;;;11.30;9.80;;;;;;;10.33;53.37;101709.70;144183;1273;97913;-85
2023/02/15 08:14:20;;;;;;;10.20;9.10;;;;;;;10.34;53.32;101709.07;143754;1275;107574;-79
2023/02/15 08:17:42;;;;;;;11.00;9.40;;;;;;;10.34;53.24;101702.48;143594;1289;107693;-78
2023/02/15 08:21:06;;;;;;;12.10;10.90;;;;;;;10.34;53.34;101694.65;143504;1276;107261;-79
2023/02/15 08:24:30;;;;;;;12.70;10.80;;;;;;;10.34;53.17;101699.69;143523;1274;97975;-82
2023/02/15 08:27:52;;;;;;;14.90;11.30;;;;;;;10.33;53.33;101700.54;143651;1276;97934;-79
2023/02/15 08:31:15;;;;;;;15.10;11.40;;;;;;;10.33;53.30;101697.05;143507;1276;97946;-79
2023/02/15 08:34:39;;;;;;;12.60;11.00;;;;;;;10.33;53.30;101691.48;143435;1276;98039;-79
2023/02/15 08:38:01;;;;;;;12.70;10.90;;;;;;;10.33;53.19;101694.98;143432;1276;98048;-77
2023/02/15 08:41:26;;;;;;;13.00;10.80;;;;;;;10.34;53.18;101694.66;143383;1273;97972;-79
2023/02/15 08:44:50;;;;;;;15.00;11.20;;;;;;;10.34;53.22;101694.83;143528;1274;98035;-79
2023/02/15 08:48:12;;;;;;;13.20;11.30;;;;;;;10.34;53.29;101694.66;143607;1272;99315;-78
2023/02/15 08:51:36;;;;;;;16.80;12.40;;;;;;;10.34;53.20;101689.09;143467;1295;99261;-77
2023/02/15 08:54:58;;;;;;;15.80;12.50;;;;;;;10.35;53.19;101682.52;143608;1276;98379;-79
2023/02/15 08:58:19;;;;;;;16.20;12.40;;;;;;;10.36;53.23;101679.98;143373;1272;98867;-84
2023/02/15 09:01:42;;;;;;;15.70;11.00;;;;;;;10.37;53.18;101677.42;143867;1276;99239;-81
2023/02/15 09:05:04;;;;;;;16.00;12.10;;;;;;;10.39;53.25;101680.08;143905;1275;98094;-79
2023/02/15 09:08:27;;;;;;;15.40;11.60;;;;;;;10.39;53.06;101674.41;143737;1275;98042;-85
2023/02/15 09:11:50;;;;;;;15.90;12.60;;;;;;;10.41;53.13;101675.66;143727;1276;111666;-85
2023/02/15 09:15:19;;;;;;;13.30;11.50;;;;;;;10.43;53.13;101676.98;143703;1276;111814;-85
2023/02/15 09:18:41;;;;;;;13.10;10.70;;;;;;;10.44;53.03;101670.39;143806;1275;97944;-83
2023/02/15 09:22:02;;;;;;;12.00;9.80;;;;;;;10.45;53.03;101662.28;143906;1272;99254;-85
2023/02/15 09:25:24;;;;;;;13.00;10.10;;;;;;;10.46;52.84;101666.16;143707;1276;102529;-85
2023/02/15 09:28:48;;;;;;;11.60;10.10;;;;;;;10.47;52.80;101659.44;143641;1276;97946;-83
2023/02/15 09:32:14;;;;;;;14.90;10.40;;;;;;;10.49;52.86;101657.22;143808;1276;97930;-83
2023/02/15 09:35:36;;;;;;;11.60;10.00;;;;;;;10.51;52.77;101662.02;143837;1273;102234;-85
2023/02/15 09:38:58;;;;;;;10.60;9.40;;;;;;;10.51;52.77;101664.66;143811;1276;97966;-83
2023/02/15 09:42:49;;;;;;;14.00;11.20;;;;;;;10.52;52.64;101659.99;143857;1276;98446;-79
2023/02/15 09:46:11;;;;;;;12.60;9.70;;;;;;;10.53;52.64;101656.23;142077;1285;285076;-81
2023/02/15 09:49:43;;;;;;;10.80;9.50;;;;;;;10.54;52.60;101654.00;142369;1285;98088;-85
2023/02/15 09:53:27;;;;;;;12.00;9.40;;;;;;;10.55;52.55;101659.42;142399;1298;107129;-86
2023/02/15 09:56:56;;;;;;;10.90;9.70;;;;;;;10.55;52.50;101651.28;142181;1282;108465;-82
2023/02/15 10:00:31;;;;;;;10.60;6.90;;;;;;;10.59;53.85;101646.73;141553;1288;107634;-76
2023/02/15 10:04:25;;;;;;;14.30;7.40;;;;;;;11.04;60.01;101643.45;142141;1282;107563;-81
2023/02/15 10:08:10;;;;;;;11.90;9.40;;;;;;;11.70;61.59;101637.44;141901;1285;108467;-80
2023/02/15 10:11:54;;;;;;;14.10;8.70;;;;;;;12.22;61.63;101635.94;142033;1280;107612;-80
2023/02/15 10:15:16;;;;;;;16.40;8.50;;;;;;;12.59;61.31;101631.52;142173;1285;107185;-81
2023/02/15 10:18:56;;;;;;;14.00;9.30;;;;;;;12.87;61.64;101631.61;142170;1285;98133;-84
2023/02/15 10:22:23;;;;;;;8.30;7.40;;;;;;;13.12;61.19;101629.15;142621;1276;107470;-79
2023/02/15 10:25:45;;;;;;;14.00;9.40;;;;;;;13.35;61.08;101630.80;143640;1276;108375;-77
2023/02/15 10:29:43;;;;;;;16.00;8.90;;;;;;;13.59;60.93;101628.60;143524;1276;98049;-79
2023/02/15 10:33:26;;;;;;;14.50;8.60;;;;;;;13.78;60.37;101623.06;142447;1278;107459;-79
2023/02/15 10:36:56;;;;;;;17.40;9.20;;;;;;;13.90;59.87;101619.77;142599;1302;107599;-80
2023/02/15 10:40:33;;;;;;;17.30;8.20;;;;;;;13.99;59.52;101621.39;142377;1282;108497;-74
2023/02/15 10:44:04;;;;;;;19.40;10.60;;;;;;;13.90;58.03;101615.90;142433;1282;109207;-76
2023/02/15 10:47:45;;;;;;;13.70;10.60;;;;;;;13.28;55.52;101609.42;142458;1282;108576;-79
2023/02/15 10:51:13;;;;;;;11.40;7.90;;;;;;;12.93;58.27;101607.73;142384;1282;107565;-79
2023/02/15 10:54:45;;;;;;;15.40;10.00;;;;;;;13.22;58.85;101608.17;142358;1279;107493;-77
2023/02/15 10:58:38;;;;;;;13.40;10.80;;;;;;;13.10;56.17;101602.03;142397;1280;106716;-77
2023/02/15 11:02:00;;;;;;;15.30;11.20;;;;;;;12.45;54.62;101594.38;142240;1282;107537;-78
2023/02/15 11:05:37;;;;;;;12.10;9.30;;;;;;;11.89;54.34;101588.85;142182;1282;98050;-78
2023/02/15 11:09:08;;;;;;;12.50;9.70;;;;;;;11.46;54.93;101599.56;143062;1273;106591;-77
2023/02/15 11:12:33;;;;;;;11.30;8.30;;;;;;;11.41;55.68;101593.60;143883;1273;107768;-80
2023/02/15 11:16:02;;;;;;;12.20;7.80;;;;;;;11.47;56.09;101593.31;144474;1271;97943;-81
2023/02/15 11:19:31;;;;;;;12.30;8.90;;;;;;;11.52;56.24;101593.17;143993;1276;107632;-82
2023/02/15 11:22:53;;;;;;;12.00;8.90;;;;;;;11.51;56.60;101587.73;143662;1276;107696;-79
2023/02/15 11:26:24;;;;;;;9.40;8.40;;;;;;;11.43;56.45;101586.89;143793;1272;98074;-82
2023/02/15 11:30:09;;;;;;;12.80;9.80;;;;;;;11.36;56.54;101584.38;143302;1275;107611;-82
2023/02/15 11:33:36;;;;;;;13.80;10.30;;;;;;;11.10;56.36;101579.86;142583;1282;107678;-80
2023/02/15 11:37:06;;;;;;;11.20;9.00;;;;;;;10.85;56.54;101576.02;142727;1282;107570;-85
2023/02/15 11:40:34;;;;;;;17.00;10.20;;;;;;;10.80;56.85;101579.47;143193;1278;107741;-91
2023/02/15 11:44:26;;;;;;;13.70;9.50;;;;;;;10.84;56.97;101578.23;142962;1279;108420;-92
2023/02/15 11:47:48;;;;;;;13.50;9.70;;;;;;;10.83;57.23;101578.40;142342;1280;108500;-82
2023/02/15 11:51:16;;;;;;;13.90;10.20;;;;;;;10.93;56.95;101573.20;143080;1282;98025;-91
2023/02/15 11:54:49;;;;;;;11.60;9.30;;;;;;;11.04;57.08;101571.77;143027;1279;107432;-87
2023/02/15 11:58:51;;;;;;;12.40;10.20;;;;;;;11.12;57.24;101568.98;143912;1279;107516;-94
2023/02/15 12:02:17;;;;;;;10.80;9.70;;;;;;;11.20;57.06;101566.67;142516;1279;107839;-82
2023/02/15 12:05:45;;;;;;;13.10;9.50;;;;;;;11.24;57.14;101562.14;142780;1282;107607;-82
2023/02/15 12:09:20;;;;;;;11.20;9.30;;;;;;;11.27;57.09;101556.00;142509;1282;107601;-78
2023/02/15 12:12:44;;;;;;;11.80;9.40;;;;;;;11.32;57.08;101556.02;143591;1276;107510;-78
2023/02/15 12:16:07;;;;;;;19.30;11.40;;;;;;;11.36;56.94;101548.85;143339;1276;97942;-81
2023/02/15 12:19:40;;;;;;;14.00;10.50;;;;;;;11.38;57.06;101551.55;143081;1279;107111;-82
2023/02/15 12:23:14;;;;;;;11.40;10.00;;;;;;;11.38;56.95;101544.05;143604;1276;107224;-79
2023/02/15 12:26:37;;;;;;;12.10;10.30;;;;;;;11.36;57.10;101536.66;143189;1276;107596;-79
2023/02/15 12:30:02;;;;;;;16.80;11.40;;;;;;;11.35;56.89;101532.98;142877;1287;99250;-79
2023/02/15 12:33:34;;;;;;;11.60;10.20;;;;;;;11.33;56.93;101533.95;143382;1276;108460;-79
2023/02/15 12:37:02;;;;;;;16.70;12.50;;;;;;;11.32;56.98;101536.52;143446;1276;106292;-78
2023/02/15 12:40:29;;;;;;;12.80;10.90;;;;;;;11.30;56.73;101531.02;143566;1276;108435;-81
2023/02/15 12:44:19;;;;;;;14.80;13.00;;;;;;;11.26;56.68;101525.51;143534;1287;107688;-79
2023/02/15 12:47:41;;;;;;;15.00;12.20;;;;;;;11.24;56.68;101514.29;143541;1276;108140;-79
2023/02/15 12:51:08;;;;;;;16.10;12.40;;;;;;;11.24;56.50;101511.29;143527;1287;99245;-78
2023/02/15 12:54:42;;;;;;;14.00;11.60;;;;;;;11.22;56.50;101507.92;143483;1274;107231;-78
2023/02/15 12:58:22;;;;;;;17.20;12.50;;;;;;;11.19;56.33;101504.49;143488;1287;108204;-79
2023/02/15 13:01:45;;;;;;;15.70;12.20;;;;;;;11.17;56.18;101501.80;142724;1283;107587;-77
2023/02/15 13:05:18;;;;;;;17.00;13.80;;;;;;;11.14;56.21;101495.27;142544;1280;107632;-79
2023/02/15 13:08:46;;;;;;;20.10;14.60;;;;;;;11.11;56.27;101493.91;142942;1280;107466;-78
2023/02/15 13:12:26;;;;;;;20.10;13.90;;;;;;;11.08;56.03;101493.48;142647;1279;107566;-79
2023/02/15 13:15:54;;;;;;;16.80;13.60;;;;;;;11.06;56.09;101491.46;142760;1282;107652;-78
2023/02/15 13:19:33;;;;;;;18.90;15.20;;;;;;;11.04;56.20;101484.08;143033;1277;108264;-79
2023/02/15 13:23:15;;;;;;;18.60;14.00;;;;;;;11.03;56.07;101478.30;143141;1278;108451;-78
2023/02/15 13:26:37;;;;;;;20.40;15.50;;;;;;;11.02;56.09;101474.77;143607;1276;108107;-78
2023/02/15 13:30:03;;;;;;;19.00;15.30;;;;;;;11.01;56.01;101471.63;143536;1275;98019;-77
2023/02/15 13:33:28;;;;;;;16.10;13.50;;;;;;;11.00;56.10;101467.73;142778;1274;107568;-78
2023/02/15 13:37:15;;;;;;;22.50;14.60;;;;;;;10.98;55.98;101466.11;143195;1276;105746;-78
2023/02/15 13:40:55;;;;;;;21.00;14.80;;;;;;;10.96;55.88;101460.11;143641;1274;107422;-79
2023/02/15 13:44:42;;;;;;;20.90;14.20;;;;;;;10.95;56.02;101458.83;143240;1275;107569;-77
2023/02/15 13:48:14;;;;;;;18.50;15.50;;;;;;;10.92;55.94;101466.56;144124;1276;108533;-77
2023/02/15 13:51:51;;;;;;;20.10;15.40;;;;;;;10.90;55.82;101462.64;144427;1271;107433;-75
2023/02/15 13:55:37;;;;;;;18.60;14.70;;;;;;;10.87;55.88;101464.80;144783;1273;106529;-76
2023/02/15 13:59:12;;;;;;;22.70;16.30;;;;;;;10.85;55.74;101466.10;143772;1282;108361;-82
2023/02/15 14:02:38;;;;;;;20.80;16.20;;;;;;;10.83;55.73;101462.39;143228;1285;108295;-82
2023/02/15 14:06:25;;;;;;;26.70;15.50;;;;;;;10.82;55.71;101461.98;143147;1285;107530;-79
2023/02/15 14:10:19;;;;;;;511.50;89.40;;;;;;;10.80;55.71;101457.92;143981;1280;107759;-79
2023/02/15 14:13:58;;;;;;;803.10;163.30;;;;;;;10.73;55.86;101453.42;143119;1284;107147;-78
2023/02/15 14:17:26;;;;;;;;;;;;;;;10.71;55.90;101450.95;142989;1285;106934;-79
2023/02/15 14:21:28;;;;;;;624.30;129.40;;;;;;;10.71;55.84;101451.63;143000;1280;107242;-80
2023/02/15 14:25:04;;;;;;;553.10;113.30;;;;;;;10.69;55.79;101449.45;142894;1285;107833;-81
2023/02/15 14:28:43;;;;;;;514.40;109.50;;;;;;;10.68;55.69;101451.33;142535;1285;108544;-80
2023/02/15 14:32:12;;;;;;;494.10;103.80;;;;;;;10.68;55.71;101450.29;142424;1282;107187;-82
2023/02/15 14:35:36;;;;;;;450.40;94.30;;;;;;;10.65;55.65;101445.85;143092;1279;107498;-80
2023/02/15 14:41:00;;;;;;;142.30;34.20;;;;;;;10.65;56.68;101443.94;144345;1276;106238;-79
2023/02/15 14:43:00;;;;;;;163.30;40.50;;;;;;;10.87;57.82;101437.85;143892;1287;107562;-80
2023/02/15 14:46:38;;;;;;;163.40;37.90;;;;;;;10.88;57.44;101438.91;144064;1273;106399;-79
2023/02/15 14:50:36;;;;;;;161.50;39.70;;;;;;;10.83;57.45;101435.98;144317;1272;108132;-79
2023/02/15 14:53:58;;;;;;;121.60;37.90;;;;;;;10.80;57.52;101437.92;144048;1276;107683;-78
2023/02/15 14:57:22;;;;;;;108.40;31.40;;;;;;;10.79;58.09;101432.16;143484;1276;99037;-79
2023/02/15 15:00:44;;;;;;;105.20;29.30;;;;;;;10.80;57.76;101423.13;144066;1276;99238;-84
2023/02/15 15:04:09;;;;;;;74.90;21.70;;;;;;;10.87;59.96;101416.97;144266;1276;97953;-80
2023/02/15 15:07:42;;;;;;;260.60;51.40;;;;;;;11.04;59.42;101417.63;144262;1273;97967;-81
2023/02/15 15:11:29;;;;;;;233.70;51.50;;;;;;;11.01;58.73;101416.48;143888;1276;98032;-81
2023/02/15 15:15:05;;;;;;;191.10;48.00;;;;;;;10.93;58.75;101414.07;144023;1274;97966;-80
2023/02/15 15:18:47;;;;;;;183.80;44.80;;;;;;;10.87;58.56;101408.63;143791;1277;98023;-80
2023/02/15 15:22:20;;;;;;;167.70;39.80;;;;;;;10.83;58.45;101402.88;143930;1273;99292;-80
2023/02/15 15:26:11;;;;;;;150.90;38.30;;;;;;;10.79;58.24;101403.08;144339;1274;97942;-81
2023/02/15 15:29:40;;;;;;;146.90;40.90;;;;;;;10.74;58.40;101401.84;142716;1279;98189;-80
2023/02/15 15:33:19;;;;;;;144.20;37.50;;;;;;;10.70;58.41;101398.56;142663;1280;97966;-80
2023/02/15 15:36:50;;;;;;;124.40;35.50;;;;;;;10.66;58.39;101397.88;142721;1285;97944;-81
2023/02/15 15:40:48;;;;;;;105.00;33.40;;;;;;;10.60;58.04;101389.98;142940;1283;98301;-81
2023/02/15 15:45:01;;;;;;;110.70;33.80;;;;;;;10.54;58.01;101389.43;142683;1283;98117;-82
2023/02/15 15:48:37;;;;;;;106.70;31.80;;;;;;;10.50;57.95;101396.37;141778;1289;98182;-82
2023/02/15 15:52:01;;;;;;;86.10;27.80;;;;;;;10.46;57.78;101389.77;141678;1291;98148;-81
2023/02/15 15:55:26;;;;;;;83.10;27.40;;;;;;;10.42;57.67;101385.83;141861;1290;98163;-82
2023/02/15 15:59:06;;;;;;;80.40;29.20;;;;;;;10.39;57.65;101383.60;141810;1288;98088;-81
2023/02/15 16:02:28;;;;;;;60.50;25.50;;;;;;;10.36;57.98;101381.95;142143;1288;99267;-82
2023/02/15 16:05:54;;;;;;;57.20;25.60;;;;;;;10.38;57.94;101381.48;142601;1280;98014;-82
2023/02/15 16:09:20;;;;;;;53.60;24.50;;;;;;;10.35;57.87;101383.63;142863;1286;98039;-83